Isla Mujeres, Mexico

3:32 PM EST on February 13, 2016 (GMT -0500)
Isla Mujeres - Punta Sur | | Change Station
CLOSE
Current Station
Personal Weather Station
Location: Quintana Roo, QUINTANA ROO
Elevation: 30 ft
Nearby Weather Stations

Elev 30 ft 21.21 °N, 86.72 °W | Updated 8 minutes ago

Scattered Clouds
Scattered Clouds
78.4 °F
Feels Like 82 °F
N
12.5
Wind Variable Wind from NNE

Today
High -- | Low -- °F
--% Chance of Precip.
Yesterday
High -- | Low -- °F
Precip. -- in
Pressure 30.18 in
Visibility 7.0 miles
Clouds Scattered Clouds 1800 ft
Heat Index 82 °F
Dew Point 78 °F
Humidity 99%
Rainfall 0.00 in
Snow Depth Not available.
7:18 AM 6:43 PM
Waxing Crescent, 34% visible
METAR MMUN 131945Z 04012KT 7SM SCT018 26/16 A3018 RMK 8/100 CI
Pressure 30.18 in
Visibility 7.0 miles
Clouds Scattered Clouds 1800 ft
Heat Index 82 °F
Dew Point 78 °F
Humidity 99%
Rainfall 0.00 in
Snow Depth Not available.
7:18 AM 6:43 PM
Waxing Crescent, 34% visible
METAR MMUN 131945Z 04012KT 7SM SCT018 26/16 A3018 RMK 8/100 CI

10-Day Weather Forecast

No radar image for this location.
×

Almanac

Astronomy

Feb. 13, 2016 Rise Set
Actual Time
Civil Twilight
Nautical Twilight
Astronomical Twilight
Moon
Length of Visible Light
Length of Day
Tomorrow will be .
, % of the Moon is Illuminated

Today's Extremes

Country Highs Country Lows

Community

WunderPhotos

Upload Photos

1,892,664 photos uploaded!

WunderBlog® & News

Nearby

Air Quality

  Air Quality AQ Index Pollutant
Not available.

Snow Depth

Station Depth Elevation

Earthquake Activity

City Distance Mag. Time & Date
Minimum magnitude displayed is 2.5.

Coastal Water Temperatures

Place Temperature

Stations

Nearby Weather Stations

Station Location Temp. Windchill Dew Point Humidity Wind Precip. Elev Updated Type